Time;durP1;ratioP1;P1;durP2;ratioP2;P2;SDS_P1;SDS_P2;PMS_P1;PMS_P2;Temp;Humidity;BMP_temperature;BMP_pressure;BME280_temperature;BME280_humidity;BME280_pressure;Samples;Min_cycle;Max_cycle;Signal;HPM_P1;HPM_P2
2022/01/23 00:00:45;;;;;;;;;;;;;;;6.75;100.00;103602.44;5112824;28;19935;-36
2022/01/23 00:03:17;;;;;;;;;;;;;;;6.77;100.00;103605.03;5112555;28;19924;-33
2022/01/23 00:05:45;;;;;;;;;;;;;;;6.75;100.00;103596.91;5099963;28;19928;-33
2022/01/23 00:08:17;;;;;;;;;;;;;;;6.74;100.00;103597.97;5112673;28;19924;-34
2022/01/23 00:10:44;;;;;;;;;;;;;;;6.73;100.00;103592.59;5112172;28;19927;-35
2022/01/23 00:13:22;;;;;;;;;;;;;;;6.72;100.00;103590.91;5111891;28;19931;-36
2022/01/23 00:18:34;;;;;;;;;;;;;;;6.67;100.00;103583.19;5111153;28;19928;-35
2022/01/23 00:21:02;;;;;;;;;;;;;;;6.66;100.00;103580.63;5111265;28;19924;-32
2022/01/23 00:30:17;;;;;;;;;;;;;;;6.63;100.00;103581.03;5112273;28;20021;-34
2022/01/23 00:31:50;;;;;;;;;;;;;;;6.57;100.00;103582.72;5102932;28;19931;-33
2022/01/23 00:34:19;;;;;;;;;;;;;;;6.55;100.00;103594.03;5111332;28;19940;-33
2022/01/23 00:36:47;;;;;;;;;;;;;;;6.55;100.00;103596.81;5101174;28;19930;-33
2022/01/23 00:39:16;;;;;;;;;;;;;;;6.55;100.00;103605.13;5112023;28;19924;-33
2022/01/23 00:41:43;;;;;;;;;;;;;;;6.56;100.00;103600.44;5092945;28;19924;-38
2022/01/23 00:44:11;;;;;;;;;;;;;;;6.57;100.00;103599.38;5111822;28;20406;-34
2022/01/23 00:46:40;;;;;;;;;;;;;;;6.57;100.00;103602.16;5107835;28;20403;-39
2022/01/23 00:49:24;;;;;;;;;;;;;;;6.57;100.00;103611.31;5101202;28;19924;-38
2022/01/23 00:51:53;;;;;;;;;;;;;;;6.58;100.00;103612.19;5108049;28;19949;-34
2022/01/23 00:54:22;;;;;;;;;;;;;;;6.59;100.00;103610.28;5092718;28;19931;-34
2022/01/23 00:56:50;;;;;;;;;;;;;;;6.58;100.00;103614.97;5092230;28;19929;-35
2022/01/23 00:59:17;;;;;;;;;;;;;;;6.60;100.00;103611.94;5094080;28;19930;-34
2022/01/23 01:01:45;;;;;;;;;;;;;;;6.60;100.00;103614.72;5110908;28;19934;-33
2022/01/23 01:04:13;;;;;;;;;;;;;;;6.60;100.00;103614.72;5093710;28;19961;-33
2022/01/23 01:06:41;;;;;;;;;;;;;;;6.60;100.00;103603.63;5092523;28;19924;-32
2022/01/23 01:09:09;;;;;;;;;;;;;;;6.61;100.00;103605.34;5110558;28;19924;-38
2022/01/23 01:11:57;;;;;;;;;;;;;;;6.61;100.00;103602.56;5111958;28;19924;-32
2022/01/23 01:14:41;;;;;;;;;;;;;;;6.62;100.00;103596.81;5111919;28;19959;-31
2022/01/23 01:17:16;;;;;;;;;;;;;;;6.63;100.00;103592.13;5094326;28;19924;-32
2022/01/23 01:31:02;;;;;;;;;;;;;;;6.65;100.00;103573.34;5115047;28;19932;-30
2022/01/23 01:33:42;;;;;;;;;;;;;;;6.65;100.00;103578.91;5097004;28;20304;-36
2022/01/23 01:39:04;;;;;;;;;;;;;;;6.64;100.00;103577.19;5085951;28;20402;-34
2022/01/23 01:41:34;;;;;;;;;;;;;;;6.62;100.00;103591.25;5097252;28;19931;-39
2022/01/23 01:44:04;;;;;;;;;;;;;;;6.61;100.00;103599.78;5085497;28;20007;-37
2022/01/23 01:46:54;;;;;;;;;;;;;;;6.57;100.00;103611.31;5096929;28;19924;-35
2022/01/23 01:49:28;;;;;;;;;;;;;;;6.56;100.00;103603.22;5097134;28;19931;-32
2022/01/23 01:51:57;;;;;;;;;;;;;;;6.55;100.00;103601.50;5096131;28;19930;-39
2022/01/23 01:54:27;;;;;;;;;;;;;;;6.53;100.00;103604.47;5095789;28;19924;-34
2022/01/23 01:57:05;;;;;;;;;;;;;;;6.52;100.00;103601.91;5095068;28;19930;-33
2022/01/23 02:00:00;;;;;;;;;;;;;;;6.50;100.00;103599.31;5096525;28;20369;-33
2022/01/23 02:03:07;;;;;;;;;;;;;;;6.51;100.00;103597.41;5114643;28;19931;-37
2022/01/23 02:08:32;;;;;;;;;;;;;;;6.52;100.00;103596.34;5096241;28;20273;-37
2022/01/23 02:11:05;;;;;;;;;;;;;;;6.51;100.00;103595.50;5095477;28;19970;-38
2022/01/23 02:13:37;;;;;;;;;;;;;;;6.52;100.00;103596.34;5114845;28;20007;-37
2022/01/23 02:25:13;;;;;;;;;;;;;;;6.51;100.00;103600.19;5113677;28;19933;-34
2022/01/23 02:52:49;;;;;;;;;;;;;;;6.52;100.00;103591.66;5095765;28;19924;-37
2022/01/23 02:55:24;;;;;;;;;;;;;;;6.52;100.00;103588.88;5094469;28;19923;-32
2022/01/23 02:57:57;;;;;;;;;;;;;;;6.51;100.00;103576.06;5095842;28;20009;-35
2022/01/23 03:00:35;;;;;;;;;;;;;;;6.50;100.00;103582.69;5093729;28;19939;-39
2022/01/23 03:03:08;;;;;;;;;;;;;;;6.50;100.00;103581.81;5113498;28;19923;-36
2022/01/23 03:06:17;;;;;;;;;;;;;;;6.48;100.00;103584.81;5095574;28;19931;-34
2022/01/23 03:09:08;;;;;;;;;;;;;;;6.49;100.00;103588.44;5083443;28;19928;-32
2022/01/23 03:12:00;;;;;;;;;;;;;;;6.49;100.00;103585.66;5113617;28;19924;-41
2022/01/23 03:14:41;;;;;;;;;;;;;;;6.49;100.00;103586.50;5093987;28;19931;-32
2022/01/23 03:25:48;;;;;;;;;;;;;;;6.52;100.00;103586.13;5113339;28;19928;-37
2022/01/23 03:28:22;;;;;;;;;;;;;;;6.52;100.00;103591.66;5112229;28;19924;-39
2022/01/23 03:31:06;;;;;;;;;;;;;;;6.53;100.00;103584.19;5104068;28;19930;-39
2022/01/23 03:33:34;;;;;;;;;;;;;;;6.53;100.00;103589.75;5113036;28;19924;-40
2022/01/23 03:36:02;;;;;;;;;;;;;;;6.52;100.00;103586.13;5112186;28;20376;-33
2022/01/23 03:38:31;;;;;;;;;;;;;;;6.53;100.00;103582.28;5094822;28;19924;-36
2022/01/23 03:40:58;;;;;;;;;;;;;;;6.53;100.00;103589.75;5111238;28;20373;-34
2022/01/23 03:43:30;;;;;;;;;;;;;;;6.54;100.00;103597.84;5093653;28;19927;-34
2022/01/23 03:46:22;;;;;;;;;;;;;;;6.54;100.00;103594.22;5094948;28;19983;-36
2022/01/23 03:51:39;;;;;;;;;;;;;;;6.55;100.00;103593.16;5086650;28;19928;-33
2022/01/23 03:54:06;;;;;;;;;;;;;;;6.55;100.00;103591.25;5094223;28;20270;-37
2022/01/23 03:56:34;;;;;;;;;;;;;;;6.56;100.00;103595.75;5093625;28;20346;-36
2022/01/23 03:59:03;;;;;;;;;;;;;;;6.55;100.00;103605.13;5112443;28;19980;-36
2022/01/23 04:01:31;;;;;;;;;;;;;;;6.56;100.00;103605.97;5094097;28;20018;-35
2022/01/23 04:04:02;;;;;;;;;;;;;;;6.55;100.00;103607.03;5092939;28;20027;-34
2022/01/23 04:06:32;;;;;;;;;;;;;;;6.54;100.00;103595.09;5094518;28;20421;-36
2022/01/23 04:08:59;;;;;;;;;;;;;;;6.55;100.00;103601.50;5112410;28;19959;-35
2022/01/23 04:11:28;;;;;;;;;;;;;;;6.54;100.00;103599.78;5092989;28;20344;-36
2022/01/23 04:14:01;;;;;;;;;;;;;;;6.54;100.00;103597.84;5093592;28;19924;-40
2022/01/23 04:16:45;;;;;;;;;;;;;;;6.52;100.00;103597.22;5112172;28;20395;-33
2022/01/23 04:19:34;;;;;;;;;;;;;;;6.51;100.00;103605.72;5082028;28;19963;-36
2022/01/23 04:33:26;;;;;;;;;;;;;;;6.47;100.00;103599.72;5085174;28;19931;-36
2022/01/23 05:00:53;;;;;;;;;;;;;;;6.38;100.00;103612.06;5101592;28;19924;-33
2022/01/23 05:06:24;;;;;;;;;;;;;;;6.39;100.00;103608.25;5106206;28;20273;-32
2022/01/23 05:08:58;;;;;;;;;;;;;;;6.40;100.00;103609.06;5093134;28;19998;-29
2022/01/23 05:11:46;;;;;;;;;;;;;;;6.40;100.00;103607.16;5093395;28;19931;-34
2022/01/23 05:14:27;;;;;;;;;;;;;;;6.43;100.00;103609.50;5092332;28;19924;-38
2022/01/23 05:16:55;;;;;;;;;;;;;;;6.42;100.00;103607.81;5111709;28;20377;-32
2022/01/23 05:19:23;;;;;;;;;;;;;;;6.42;100.00;103612.50;5092662;28;20277;-35
2022/01/23 05:22:06;;;;;;;;;;;;;;;6.41;100.00;103611.63;5110642;28;20222;-36
2022/01/23 05:24:37;;;;;;;;;;;;;;;6.42;100.00;103612.50;5083357;28;19968;-33
2022/01/23 05:27:06;;;;;;;;;;;;;;;6.42;100.00;103612.50;5092645;28;19928;-30
2022/01/23 05:29:34;;;;;;;;;;;;;;;6.42;100.00;103601.41;5110187;28;19942;-30
2022/01/23 05:32:02;;;;;;;;;;;;;;;6.42;100.00;103610.56;5111027;28;19927;-33
2022/01/23 05:34:30;;;;;;;;;;;;;;;6.42;100.00;103613.34;5111444;28;19930;-37
2022/01/23 05:37:10;;;;;;;;;;;;;;;6.42;100.00;103613.34;5093056;28;20056;-34
2022/01/23 05:39:40;;;;;;;;;;;;;;;6.43;100.00;103608.66;5093205;28;20400;-37
2022/01/23 05:42:09;;;;;;;;;;;;;;;6.43;100.00;103614.22;5110476;28;19928;-32
2022/01/23 05:44:39;;;;;;;;;;;;;;;6.42;100.00;103613.34;5093091;28;20035;-33
2022/01/23 05:47:09;;;;;;;;;;;;;;;6.41;100.00;103614.41;5091158;28;19924;-36
2022/01/23 05:50:09;;;;;;;;;;;;;;;6.42;100.00;103605.03;5091283;28;20301;-35
2022/01/23 05:52:57;;;;;;;;;;;;;;;6.43;100.00;103608.66;5091950;28;19959;-36
2022/01/23 05:55:29;;;;;;;;;;;;;;;6.43;100.00;103615.06;5091248;28;20377;-39
2022/01/23 05:58:17;;;;;;;;;;;;;;;6.42;100.00;103605.03;5057506;28;19932;-33
2022/01/23 06:00:50;;;;;;;;;;;;;;;6.43;100.00;103609.50;5110050;28;19931;-35
2022/01/23 06:03:21;;;;;;;;;;;;;;;6.43;100.00;103603.13;5092353;28;19924;-30
2022/01/23 06:06:09;;;;;;;;;;;;;;;6.44;100.00;103605.69;5085844;28;20377;-40
2022/01/23 06:08:38;;;;;;;;;;;;;;;6.44;100.00;103604.81;5094945;28;19928;-39
2022/01/23 06:11:06;;;;;;;;;;;;;;;6.43;100.00;103606.75;5084339;28;19994;-33
2022/01/23 06:13:40;;;;;;;;;;;;;;;6.43;100.00;103609.50;5095413;28;20322;-33
2022/01/23 06:19:11;;;;;;;;;;;;;;;6.44;100.00;103605.69;5113052;28;20407;-35
2022/01/23 06:22:02;;;;;;;;;;;;;;;6.43;100.00;103609.50;5112507;28;19935;-32
2022/01/23 06:24:50;;;;;;;;;;;;;;;6.42;100.00;103612.50;5094399;28;20281;-32
2022/01/23 06:27:39;;;;;;;;;;;;;;;6.41;100.00;103611.63;5094555;28;19923;-33
2022/01/23 06:30:07;;;;;;;;;;;;;;;6.42;100.00;103615.25;5113010;28;20010;-35
2022/01/23 06:32:35;;;;;;;;;;;;;;;6.41;100.00;103617.19;5092602;28;20008;-33
2022/01/23 06:35:03;;;;;;;;;;;;;;;6.40;100.00;103609.06;5113010;28;19938;-31
2022/01/23 06:37:31;;;;;;;;;;;;;;;6.40;100.00;103612.69;5113213;28;19949;-35
2022/01/23 06:40:00;;;;;;;;;;;;;;;6.40;100.00;103611.84;5093785;28;19962;-36
2022/01/23 06:42:48;;;;;;;;;;;;;;;6.41;100.00;103617.19;5112744;28;20354;-34
2022/01/23 06:45:25;;;;;;;;;;;;;;;6.41;100.00;103617.19;5093817;28;19928;-34
2022/01/23 06:47:54;;;;;;;;;;;;;;;6.41;100.00;103628.28;5094261;28;20014;-34
2022/01/23 06:50:22;;;;;;;;;;;;;;;6.40;100.00;103629.34;5094205;28;20030;-33
2022/01/23 06:52:49;;;;;;;;;;;;;;;6.41;100.00;103627.41;5111753;28;20034;-33
2022/01/23 06:55:19;;;;;;;;;;;;;;;6.41;100.00;103625.50;5094179;28;19923;-34
2022/01/23 06:57:51;;;;;;;;;;;;;;;6.41;100.00;103621.88;5094354;28;19969;-37
2022/01/23 07:00:18;;;;;;;;;;;;;;;6.42;100.00;103624.44;5093627;28;19928;-35
2022/01/23 07:03:10;;;;;;;;;;;;;;;6.43;100.00;103622.53;5097442;28;19981;-40
2022/01/23 07:05:56;;;;;;;;;;;;;;;6.43;100.00;103637.25;5110878;28;20033;-35
2022/01/23 07:08:43;;;;;;;;;;;;;;;6.44;100.00;103638.09;5112775;28;19961;-38
2022/01/23 07:11:29;;;;;;;;;;;;;;;6.45;100.00;103637.06;5090522;28;19924;-36
2022/01/23 07:14:22;;;;;;;;;;;;;;;6.44;100.00;103640.88;5092802;28;19924;-36
2022/01/23 07:16:57;;;;;;;;;;;;;;;6.44;100.00;103636.19;5094474;28;19946;-34
2022/01/23 07:19:36;;;;;;;;;;;;;;;6.46;100.00;103639.63;5111678;28;19924;-36
2022/01/23 07:22:08;;;;;;;;;;;;;;;6.46;100.00;103647.09;5092415;28;19931;-35
2022/01/23 07:24:36;;;;;;;;;;;;;;;6.46;100.00;103647.94;5093612;28;20004;-36
2022/01/23 07:27:13;;;;;;;;;;;;;;;6.46;100.00;103642.41;5094018;28;20044;-36
2022/01/23 07:29:42;;;;;;;;;;;;;;;6.46;100.00;103642.41;5112171;28;19927;-33
2022/01/23 07:32:11;;;;;;;;;;;;;;;6.47;100.00;103657.13;5093760;28;19931;-39
2022/01/23 07:34:39;;;;;;;;;;;;;;;6.46;100.00;103653.50;5110407;28;19980;-36
2022/01/23 07:37:10;;;;;;;;;;;;;;;6.48;100.00;103661.63;5091812;28;19973;-33
2022/01/23 07:39:41;;;;;;;;;;;;;;;6.48;100.00;103664.38;5093554;28;20139;-37
2022/01/23 07:42:19;;;;;;;;;;;;;;;6.48;100.00;103675.47;5091345;28;19989;-37
2022/01/23 07:45:12;;;;;;;;;;;;;;;6.48;100.00;103670.78;5069156;28;20020;-37
2022/01/23 07:47:58;;;;;;;;;;;;;;;6.48;100.00;103675.47;5111708;28;20301;-36
2022/01/23 07:50:40;;;;;;;;;;;;;;;6.49;100.00;103672.50;5092198;28;20009;-36
2022/01/23 07:53:24;;;;;;;;;;;;;;;6.49;100.00;103675.28;5100600;28;20356;-37
2022/01/23 07:56:06;;;;;;;;;;;;;;;6.51;100.00;103678.72;5089064;28;19930;-32
2022/01/23 07:58:48;;;;;;;;;;;;;;;6.53;100.00;103682.16;5093638;28;20440;-35
2022/01/23 08:01:36;;;;;;;;;;;;;;;6.53;100.00;103670.19;5102133;28;19935;-32
2022/01/23 08:04:22;;;;;;;;;;;;;;;6.55;100.00;103685.56;5111788;28;20292;-35
2022/01/23 08:07:06;;;;;;;;;;;;;;;6.56;100.00;103678.97;5094062;28;19924;-33
2022/01/23 08:09:42;;;;;;;;;;;;;;;6.57;100.00;103691.78;5093149;28;19924;-35
2022/01/23 08:12:10;;;;;;;;;;;;;;;6.60;100.00;103692.41;5112263;28;19924;-34
2022/01/23 08:14:39;;;;;;;;;;;;;;;6.60;100.00;103696.03;5112556;28;19924;-34
2022/01/23 08:17:07;;;;;;;;;;;;;;;6.62;100.00;103693.06;5110886;28;19928;-34
2022/01/23 08:19:34;;;;;;;;;;;;;;;6.62;100.00;103688.38;5112210;28;19935;-38
2022/01/23 08:22:02;;;;;;;;;;;;;;;6.64;100.00;103700.13;5111908;28;19928;-31
2022/01/23 08:24:29;;;;;;;;;;;;;;;6.64;100.00;103699.25;5111331;28;20292;-38
2022/01/23 08:26:57;;;;;;;;;;;;;;;6.65;100.00;103699.06;5089212;28;20269;-31
2022/01/23 08:29:24;;;;;;;;;;;;;;;6.66;100.00;103699.91;5100900;28;19938;-37
2022/01/23 08:31:53;;;;;;;;;;;;;;;6.67;100.00;103705.28;5111258;28;19924;-33
2022/01/23 08:34:21;;;;;;;;;;;;;;;6.69;100.00;103707.84;5112256;28;19928;-38
2022/01/23 08:36:54;;;;;;;;;;;;;;;6.70;100.00;103709.56;5111847;28;19928;-38
2022/01/23 08:39:24;;;;;;;;;;;;;;;6.72;100.00;103719.41;5108536;28;20436;-35
2022/01/23 08:41:52;;;;;;;;;;;;;;;6.74;100.00;103717.28;5111831;28;19930;-31
2022/01/23 08:44:20;;;;;;;;;;;;;;;6.76;100.00;103714.31;5111715;28;19943;-35
2022/01/23 08:46:48;;;;;;;;;;;;;;;6.78;100.00;103714.97;5111236;28;20390;-37
2022/01/23 08:49:18;;;;;;;;;;;;;;;6.79;100.00;103713.91;5111708;28;19972;-37
2022/01/23 08:51:46;;;;;;;;;;;;;;;6.81;100.00;103717.31;5110904;28;19928;-39
2022/01/23 08:54:14;;;;;;;;;;;;;;;6.82;100.00;103722.66;5111915;28;19924;-37
2022/01/23 08:56:43;;;;;;;;;;;;;;;6.83;100.00;103721.59;5111965;28;19947;-31
2022/01/23 08:59:10;;;;;;;;;;;;;;;6.85;100.00;103713.06;5110936;28;19930;-32
2022/01/23 09:01:38;;;;;;;;;;;;;;;6.86;100.00;103731.44;5111697;28;19931;-32
2022/01/23 09:04:07;;;;;;;;;;;;;;;6.86;100.00;103723.97;5111353;28;20408;-42
2022/01/23 09:06:36;;;;;;;;;;;;;;;6.87;100.00;103720.13;5110971;28;19924;-33
2022/01/23 09:09:05;;;;;;;;;;;;;;;6.89;100.00;103715.22;5111715;28;19949;-32
2022/01/23 09:11:41;;;;;;;;;;;;;;;6.89;100.00;103715.22;5111721;28;19924;-32
2022/01/23 09:14:10;;;;;;;;;;;;;;;6.90;100.00;103710.53;5110897;28;19931;-37
2022/01/23 09:16:39;;;;;;;;;;;;;;;6.93;100.00;103710.13;5111678;28;19928;-34
2022/01/23 09:19:07;;;;;;;;;;;;;;;6.94;100.00;103706.28;5100209;28;19977;-30
2022/01/23 09:21:36;;;;;;;;;;;;;;;6.97;100.00;103713.38;5110886;28;19927;-36
2022/01/23 09:24:04;;;;;;;;;;;;;;;6.98;100.00;103713.16;5093258;28;20300;-36
2022/01/23 09:26:33;;;;;;;;;;;;;;;7.02;100.00;103708.03;5111689;28;19924;-33
2022/01/23 09:29:02;;;;;;;;;;;;;;;7.06;100.00;103710.19;5107284;28;19924;-36
2022/01/23 09:31:33;;;;;;;;;;;;;;;7.09;100.00;103709.78;5100700;28;19977;-35
2022/01/23 09:34:01;;;;;;;;;;;;;;;7.13;100.00;103713.00;5109367;28;19928;-37
2022/01/23 09:36:29;;;;;;;;;;;;;;;7.15;100.00;103711.75;5111654;28;19924;-33
2022/01/23 09:38:58;;;;;;;;;;;;;;;7.16;100.00;103707.91;5113758;28;19927;-34
2022/01/23 09:41:45;;;;;;;;;;;;;;;7.17;100.00;103709.63;5113740;28;20018;-37
2022/01/23 09:44:14;;;;;;;;;;;;;;;7.18;100.00;103714.13;5115297;28;20273;-32
2022/01/23 09:46:42;;;;;;;;;;;;;;;7.20;100.00;103717.50;5115497;28;19924;-32
2022/01/23 09:49:11;;;;;;;;;;;;;;;7.22;100.00;103720.09;5114489;28;20360;-36
2022/01/23 09:51:41;;;;;;;;;;;;;;;7.24;100.00;103716.03;5115258;28;19950;-36
2022/01/23 09:54:10;;;;;;;;;;;;;;;7.25;100.00;103726.09;5114977;28;19923;-37
2022/01/23 09:56:38;;;;;;;;;;;;;;;7.29;100.00;103722.91;5114381;28;19927;-33
2022/01/23 09:59:06;;;;;;;;;;;;;;;7.30;100.00;103728.25;5114830;28;20346;-38
2022/01/23 10:01:35;;;;;;;;;;;;;;;7.33;100.00;103735.31;5114884;28;20403;-39
2022/01/23 10:04:03;;;;;;;;;;;;;;;7.33;100.00;103727.84;5113220;28;19931;-33
2022/01/23 10:06:30;;;;;;;;;;;;;;;7.36;100.00;103733.00;5114774;28;19936;-32
2022/01/23 10:08:59;;;;;;;;;;;;;;;7.38;100.00;103730.00;5096664;28;20384;-33
2022/01/23 10:11:31;;;;;;;;;;;;;;;7.42;100.00;103728.50;5114341;28;19935;-32
2022/01/23 10:13:58;;;;;;;;;;;;;;;7.44;100.00;103724.44;5114884;28;19924;-32
2022/01/23 10:16:26;;;;;;;;;;;;;;;7.47;100.00;103728.75;5113637;28;19946;-34
2022/01/23 10:18:53;;;;;;;;;;;;;;;7.50;100.00;103729.19;5113998;28;19969;-35
2022/01/23 10:21:22;;;;;;;;;;;;;;;7.53;100.00;103720.44;5114378;28;19923;-37
2022/01/23 10:23:50;;;;;;;;;;;;;;;7.54;100.00;103724.94;5112953;28;19930;-37
2022/01/23 10:26:37;;;;;;;;;;;;;;;7.57;100.00;103732.00;5113890;28;19924;-38
2022/01/23 10:29:11;;;;;;;;;;;;;;;7.60;100.00;103726.00;5112930;28;19935;-38
2022/01/23 10:31:58;;;;;;;;;;;;;;;7.63;100.00;103727.50;5101459;28;19947;-34
2022/01/23 10:34:40;;;;;;;;;;;;;;;7.66;100.00;103727.94;5113002;28;19935;-33
2022/01/23 10:37:08;;;;;;;;;;;;;;;7.69;100.00;103730.31;5112587;28;19934;-40
2022/01/23 10:39:42;;;;;;;;;;;;;;;7.72;100.00;103726.25;5112387;28;19927;-31
2022/01/23 10:42:33;;;;;;;;;;;;;;;7.75;100.00;103725.84;5111324;28;19943;-34
2022/01/23 10:47:49;;;;;;;;;;;;;;;7.81;100.00;103719.41;5112840;28;19951;-33
2022/01/23 10:50:17;;;;;;;;;;;;;;;7.78;100.00;103709.59;5112127;28;20300;-35
2022/01/23 10:52:50;;;;;;;;;;;;;;;7.79;100.00;103710.47;5112042;28;19923;-34
2022/01/23 10:55:25;;;;;;;;;;;;;;;7.77;100.00;103704.25;5113016;28;19932;-37
2022/01/23 10:57:56;;;;;;;;;;;;;;;7.77;100.00;103705.13;5113049;28;20399;-34
2022/01/23 11:00:25;;;;;;;;;;;;;;;7.76;100.00;103699.75;5112170;28;19934;-32
2022/01/23 11:02:54;;;;;;;;;;;;;;;7.76;100.00;103699.75;5112495;28;19928;-38
2022/01/23 11:05:30;;;;;;;;;;;;;;;7.75;100.00;103692.50;5112118;28;19938;-35
2022/01/23 11:07:58;;;;;;;;;;;;;;;7.73;100.00;103694.63;5111937;28;20281;-32
2022/01/23 11:10:25;;;;;;;;;;;;;;;7.73;100.00;103698.25;5112332;28;20319;-37
2022/01/23 11:18:34;;;;;;;;;;;;;;;7.74;100.00;103686.06;5113701;28;20293;-39
2022/01/23 11:21:13;;;;;;;;;;;;;;;7.77;100.00;103693.13;5112699;28;19923;-41
2022/01/23 11:23:41;;;;;;;;;;;;;;;7.78;100.00;103679.03;5113378;28;19924;-32
2022/01/23 11:26:09;;;;;;;;;;;;;;;7.78;100.00;103683.72;5113446;28;19931;-34
2022/01/23 11:28:41;;;;;;;;;;;;;;;7.77;100.00;103680.09;5112494;28;19932;-40
2022/01/23 11:31:10;;;;;;;;;;;;;;;7.76;100.00;103678.38;5113431;28;19930;-38
2022/01/23 11:33:40;;;;;;;;;;;;;;;7.77;100.00;103682.00;5101614;28;19931;-35
2022/01/23 11:36:07;;;;;;;;;;;;;;;7.80;100.00;103693.53;5112995;28;20419;-34
2022/01/23 11:38:36;;;;;;;;;;;;;;;7.81;100.00;103692.47;5113498;28;19923;-40
2022/01/23 11:54:55;;;;;;;;;;;;;;;7.93;100.00;103668.56;5111804;28;19930;-32
2022/01/23 11:57:40;;;;;;;;;;;;;;;7.94;100.00;103675.84;5112605;28;20387;-34
2022/01/23 12:00:14;;;;;;;;;;;;;;;7.97;100.00;103673.69;5112325;28;19930;-41
2022/01/23 12:02:43;;;;;;;;;;;;;;;7.97;100.00;103666.22;5111778;28;19924;-37
2022/01/23 12:05:22;;;;;;;;;;;;;;;7.99;100.00;103668.78;5112359;28;19924;-34
2022/01/23 12:08:04;;;;;;;;;;;;;;;7.96;100.00;103667.28;5112592;28;20304;-34
2022/01/23 12:10:48;;;;;;;;;;;;;;;7.95;100.00;103660.88;5093451;28;19943;-34
2022/01/23 12:13:44;;;;;;;;;;;;;;;7.98;100.00;103664.28;5102811;28;19935;-33
2022/01/23 12:16:26;;;;;;;;;;;;;;;7.99;100.00;103658.50;5110598;28;20456;-37
2022/01/23 12:19:16;;;;;;;;;;;;;;;8.02;100.00;103665.53;5111304;28;20228;-32
2022/01/23 12:21:43;;;;;;;;;;;;;;;8.02;100.00;103660.00;5107741;28;19924;-34
2022/01/23 12:24:12;;;;;;;;;;;;;;;8.03;100.00;103662.56;5110034;28;19924;-36
2022/01/23 12:26:40;;;;;;;;;;;;;;;8.05;100.00;103654.84;5109291;28;19932;-33
2022/01/23 12:29:11;;;;;;;;;;;;;;;8.07;100.00;103652.72;5111205;28;19931;-34
2022/01/23 12:32:13;;;;;;;;;;;;;;;8.09;100.00;103658.94;5111040;28;19931;-36
2022/01/23 12:34:48;;;;;;;;;;;;;;;8.10;100.00;103654.22;5111035;28;19931;-36
2022/01/23 12:37:15;;;;;;;;;;;;;;;8.11;100.00;103650.38;5107117;28;19931;-38
2022/01/23 12:39:43;;;;;;;;;;;;;;;8.11;100.00;103651.22;5092787;28;19935;-39
2022/01/23 12:42:11;;;;;;;;;;;;;;;8.12;100.00;103650.16;5111137;28;19934;-40
2022/01/23 12:44:40;;;;;;;;;;;;;;;8.15;100.00;103648.88;5109279;28;19969;-33
2022/01/23 12:47:17;;;;;;;;;;;;;;;8.15;100.00;103644.19;5110848;28;19935;-33
2022/01/23 12:49:48;;;;;;;;;;;;;;;8.17;100.00;103646.75;5111005;28;19928;-32
2022/01/23 12:52:17;;;;;;;;;;;;;;;8.20;100.00;103643.50;5110141;28;19928;-38
2022/01/23 12:54:53;;;;;;;;;;;;;;;8.20;100.00;103646.28;5110485;28;20332;-35
2022/01/23 12:57:23;;;;;;;;;;;;;;;8.21;100.00;103639.66;5110517;28;19946;-35
2022/01/23 12:59:51;;;;;;;;;;;;;;;8.23;100.00;103637.50;5109819;28;19924;-35
2022/01/23 13:02:20;;;;;;;;;;;;;;;8.25;100.00;103638.16;5110573;28;19953;-36
2022/01/23 13:04:50;;;;;;;;;;;;;;;8.26;100.00;103629.59;5110430;28;19935;-37
2022/01/23 13:07:26;;;;;;;;;;;;;;;8.26;100.00;103637.09;5110746;28;19928;-36
2022/01/23 13:10:00;;;;;;;;;;;;;;;8.27;100.00;103639.66;5109987;28;19923;-38
2022/01/23 13:12:52;;;;;;;;;;;;;;;8.27;100.00;103636.03;5111848;28;19932;-36
2022/01/23 13:15:44;;;;;;;;;;;;;;;8.24;100.00;103634.53;5105928;28;19932;-39
2022/01/23 13:18:33;;;;;;;;;;;;;;;8.25;100.00;103633.44;5114299;28;19928;-33
2022/01/23 13:32:13;;;;;;;;;;;;;;;8.25;100.00;103625.09;5113797;28;19935;-35
2022/01/23 13:34:41;;;;;;;;;;;;;;;8.23;100.00;103624.47;5103187;28;19928;-32
2022/01/23 13:37:11;;;;;;;;;;;;;;;8.22;100.00;103638.59;5094966;28;20514;-36
2022/01/23 13:39:44;;;;;;;;;;;;;;;8.21;100.00;103631.31;5114726;28;19935;-36
2022/01/23 13:48:24;;;;;;;;;;;;;;;8.16;100.00;103618.06;5112494;28;19923;-37
2022/01/23 13:54:04;;;;;;;;;;;;;;;8.11;100.00;103617.00;5112754;28;19932;-37
2022/01/23 13:59:26;;;;;;;;;;;;;;;8.06;100.00;103623.19;5113962;28;20075;-35
2022/01/23 14:02:07;;;;;;;;;;;;;;;8.04;100.00;103624.47;5112058;28;19923;-36
2022/01/23 14:04:39;;;;;;;;;;;;;;;8.02;100.00;103629.41;5110724;28;20488;-37
2022/01/23 14:07:07;;;;;;;;;;;;;;;8.01;100.00;103616.56;5112415;28;19924;-37
2022/01/23 14:09:43;;;;;;;;;;;;;;;8.02;100.00;103634.97;5112192;28;19927;-34
2022/01/23 14:12:11;;;;;;;;;;;;;;;8.02;100.00;103632.19;5112854;28;19971;-35
2022/01/23 14:14:49;;;;;;;;;;;;;;;8.00;100.00;103629.59;5113101;28;20026;-35
2022/01/23 14:17:17;;;;;;;;;;;;;;;7.97;100.00;103635.63;5112162;28;19973;-38
2022/01/23 14:19:56;;;;;;;;;;;;;;;7.96;100.00;103622.78;5112615;28;19928;-34
2022/01/23 14:22:27;;;;;;;;;;;;;;;7.95;100.00;103626.63;5111456;28;19928;-33
2022/01/23 14:25:05;;;;;;;;;;;;;;;7.92;100.00;103624.28;5112141;28;19923;-35
2022/01/23 14:27:32;;;;;;;;;;;;;;;7.91;100.00;103620.66;5110162;28;20419;-33
2022/01/23 14:30:03;;;;;;;;;;;;;;;7.89;100.00;103622.78;5112534;28;19924;-36
2022/01/23 14:32:42;;;;;;;;;;;;;;;7.89;100.00;103622.78;5110850;28;20235;-35
2022/01/23 14:35:13;;;;;;;;;;;;;;;7.88;100.00;103614.66;5110398;28;19923;-32
2022/01/23 14:37:42;;;;;;;;;;;;;;;7.89;100.00;103621.94;5112676;28;19985;-34
2022/01/23 14:40:13;;;;;;;;;;;;;;;7.88;100.00;103621.06;5113051;28;19981;-37
2022/01/23 14:42:41;;;;;;;;;;;;;;;7.86;100.00;103622.34;5112214;28;19932;-34
2022/01/23 14:45:12;;;;;;;;;;;;;;;7.83;100.00;103609.72;5112170;28;20042;-29
2022/01/23 14:47:40;;;;;;;;;;;;;;;7.83;100.00;103612.50;5112699;28;20396;-35
2022/01/23 14:50:11;;;;;;;;;;;;;;;7.85;100.00;103621.50;5112192;28;20392;-37
2022/01/23 14:52:40;;;;;;;;;;;;;;;7.86;100.00;103620.41;5112544;28;20010;-34
2022/01/23 14:55:09;;;;;;;;;;;;;;;7.83;100.00;103615.28;5110936;28;19927;-36
2022/01/23 14:57:40;;;;;;;;;;;;;;;7.80;100.00;103618.50;5108770;28;19923;-33
2022/01/23 15:00:10;;;;;;;;;;;;;;;7.79;100.00;103610.41;5112218;28;20360;-35
2022/01/23 15:02:38;;;;;;;;;;;;;;;7.81;100.00;103613.78;5112497;28;19951;-35
2022/01/23 15:05:07;;;;;;;;;;;;;;;7.78;100.00;103615.09;5110503;28;19928;-33
2022/01/23 15:07:35;;;;;;;;;;;;;;;7.76;100.00;103613.59;5112676;28;19935;-32
2022/01/23 15:10:04;;;;;;;;;;;;;;;7.76;100.00;103611.66;5112447;28;19934;-37
2022/01/23 15:12:32;;;;;;;;;;;;;;;7.76;100.00;103610.81;5107985;28;20011;-31
2022/01/23 15:15:01;;;;;;;;;;;;;;;7.75;100.00;103609.97;5111617;28;19992;-36
2022/01/23 15:17:28;;;;;;;;;;;;;;;7.74;100.00;103613.81;5111578;28;19927;-37
2022/01/23 15:19:56;;;;;;;;;;;;;;;7.76;100.00;103614.44;5111096;28;19930;-35
2022/01/23 15:22:23;;;;;;;;;;;;;;;7.74;100.00;103610.16;5112167;28;20346;-36
2022/01/23 15:24:52;;;;;;;;;;;;;;;7.73;100.00;103611.22;5111876;28;19927;-41
2022/01/23 15:27:20;;;;;;;;;;;;;;;7.72;100.00;103607.59;5108335;28;19935;-34
2022/01/23 15:29:47;;;;;;;;;;;;;;;7.71;100.00;103608.66;5112073;28;19957;-30
2022/01/23 15:32:16;;;;;;;;;;;;;;;7.68;100.00;103617.44;5112652;28;19934;-35
2022/01/23 15:34:44;;;;;;;;;;;;;;;7.69;100.00;103615.50;5109769;28;19923;-37
2022/01/23 15:37:13;;;;;;;;;;;;;;;7.66;100.00;103616.78;5111331;28;20439;-38
2022/01/23 15:39:40;;;;;;;;;;;;;;;7.63;100.00;103616.34;5111374;28;19924;-32
2022/01/23 15:42:08;;;;;;;;;;;;;;;7.57;100.00;103616.16;5110910;28;19931;-34
2022/01/23 15:44:36;;;;;;;;;;;;;;;7.56;100.00;103613.56;5111638;28;19928;-36